sensor_id;sensor_type;location;lat;lon;timestamp;pressure;altitude;pressure_sealevel;temperature
20730;BMP280;10526;50.850;12.928;2022-12-18T00:01:57;99247.22;;;-10.38
20730;BMP280;10526;50.850;12.928;2022-12-18T00:06:23;99248.63;;;-10.42
20730;BMP280;10526;50.850;12.928;2022-12-18T00:10:45;99256.78;;;-10.46
20730;BMP280;10526;50.850;12.928;2022-12-18T00:15:08;99253.84;;;-10.49
20730;BMP280;10526;50.850;12.928;2022-12-18T00:19:29;99254.25;;;-10.52
20730;BMP280;10526;50.850;12.928;2022-12-18T00:23:52;99254.91;;;-10.57
20730;BMP280;10526;50.850;12.928;2022-12-18T00:28:14;99252.75;;;-10.60
20730;BMP280;10526;50.850;12.928;2022-12-18T00:32:37;99255.19;;;-10.65
20730;BMP280;10526;50.850;12.928;2022-12-18T00:36:59;99270.63;;;-10.65
20730;BMP280;10526;50.850;12.928;2022-12-18T00:41:21;99271.09;;;-10.75
20730;BMP280;10526;50.850;12.928;2022-12-18T00:46:02;99272.94;;;-10.82
20730;BMP280;10526;50.850;12.928;2022-12-18T00:50:25;99277.69;;;-10.85
20730;BMP280;10526;50.850;12.928;2022-12-18T00:54:47;99273.00;;;-10.88
20730;BMP280;10526;50.850;12.928;2022-12-18T00:59:09;99274.00;;;-10.90
20730;BMP280;10526;50.850;12.928;2022-12-18T01:03:33;99283.88;;;-10.93
20730;BMP280;10526;50.850;12.928;2022-12-18T01:07:56;99279.97;;;-10.96
20730;BMP280;10526;50.850;12.928;2022-12-18T01:12:18;99278.38;;;-10.97
20730;BMP280;10526;50.850;12.928;2022-12-18T01:16:40;99268.69;;;-10.95
20730;BMP280;10526;50.850;12.928;2022-12-18T01:21:11;99268.72;;;-11.01
20730;BMP280;10526;50.850;12.928;2022-12-18T01:25:36;99282.06;;;-11.11
20730;BMP280;10526;50.850;12.928;2022-12-18T01:29:58;99287.88;;;-11.22
20730;BMP280;10526;50.850;12.928;2022-12-18T01:34:20;99282.56;;;-11.27
20730;BMP280;10526;50.850;12.928;2022-12-18T01:38:42;99280.41;;;-11.30
20730;BMP280;10526;50.850;12.928;2022-12-18T01:43:04;99302.94;;;-11.33
20730;BMP280;10526;50.850;12.928;2022-12-18T01:47:44;99284.94;;;-11.33
20730;BMP280;10526;50.850;12.928;2022-12-18T01:52:08;99302.81;;;-11.38
20730;BMP280;10526;50.850;12.928;2022-12-18T01:56:31;99299.69;;;-11.46
20730;BMP280;10526;50.850;12.928;2022-12-18T02:00:54;99295.13;;;-11.51
20730;BMP280;10526;50.850;12.928;2022-12-18T02:14:54;99316.28;;;-11.56
20730;BMP280;10526;50.850;12.928;2022-12-18T02:19:43;99321.06;;;-11.59
20730;BMP280;10526;50.850;12.928;2022-12-18T02:24:35;99315.38;;;-11.61
20730;BMP280;10526;50.850;12.928;2022-12-18T02:29:21;99312.56;;;-11.60
20730;BMP280;10526;50.850;12.928;2022-12-18T02:33:45;99315.38;;;-11.61
20730;BMP280;10526;50.850;12.928;2022-12-18T02:38:08;99312.03;;;-11.68
20730;BMP280;10526;50.850;12.928;2022-12-18T02:42:32;99314.75;;;-11.70
20730;BMP280;10526;50.850;12.928;2022-12-18T02:46:56;99305.91;;;-11.74
20730;BMP280;10526;50.850;12.928;2022-12-18T02:51:32;99306.13;;;-11.75
20730;BMP280;10526;50.850;12.928;2022-12-18T02:56:22;99304.34;;;-11.75
20730;BMP280;10526;50.850;12.928;2022-12-18T03:06:08;99307.28;;;-11.78
20730;BMP280;10526;50.850;12.928;2022-12-18T03:10:38;99308.50;;;-11.81
20730;BMP280;10526;50.850;12.928;2022-12-18T03:19:29;99315.22;;;-11.86
20730;BMP280;10526;50.850;12.928;2022-12-18T03:23:55;99307.75;;;-11.94
20730;BMP280;10526;50.850;12.928;2022-12-18T03:28:22;99307.97;;;-11.96
20730;BMP280;10526;50.850;12.928;2022-12-18T03:33:09;99316.25;;;-11.94
20730;BMP280;10526;50.850;12.928;2022-12-18T03:37:36;99310.31;;;-12.01
20730;BMP280;10526;50.850;12.928;2022-12-18T03:51:58;99314.91;;;-12.03
20730;BMP280;10526;50.850;12.928;2022-12-18T03:56:28;99323.59;;;-12.11
20730;BMP280;10526;50.850;12.928;2022-12-18T04:00:56;99329.53;;;-12.17
20730;BMP280;10526;50.850;12.928;2022-12-18T04:05:20;99321.44;;;-12.21
20730;BMP280;10526;50.850;12.928;2022-12-18T04:09:46;99324.41;;;-12.24
20730;BMP280;10526;50.850;12.928;2022-12-18T04:14:10;99326.59;;;-12.27
20730;BMP280;10526;50.850;12.928;2022-12-18T04:18:39;99328.75;;;-12.31
20730;BMP280;10526;50.850;12.928;2022-12-18T04:23:02;99332.72;;;-12.28
20730;BMP280;10526;50.850;12.928;2022-12-18T04:27:24;99328.75;;;-12.31
20730;BMP280;10526;50.850;12.928;2022-12-18T04:31:46;99341.38;;;-12.36
20730;BMP280;10526;50.850;12.928;2022-12-18T04:36:08;99348.50;;;-12.38
20730;BMP280;10526;50.850;12.928;2022-12-18T04:40:30;99348.28;;;-12.36
20730;BMP280;10526;50.850;12.928;2022-12-18T04:44:52;99341.81;;;-12.39
20730;BMP280;10526;50.850;12.928;2022-12-18T04:49:14;99340.41;;;-12.48
20730;BMP280;10526;50.850;12.928;2022-12-18T04:53:36;99333.91;;;-12.51
20730;BMP280;10526;50.850;12.928;2022-12-18T04:57:59;99333.53;;;-12.54
20730;BMP280;10526;50.850;12.928;2022-12-18T05:02:21;99337.25;;;-12.57
20730;BMP280;10526;50.850;12.928;2022-12-18T05:06:42;99335.84;;;-12.59
20730;BMP280;10526;50.850;12.928;2022-12-18T05:11:08;99329.16;;;-12.60
20730;BMP280;10526;50.850;12.928;2022-12-18T05:15:32;99340.22;;;-12.60
20730;BMP280;10526;50.850;12.928;2022-12-18T05:19:54;99350.06;;;-12.64
20730;BMP280;10526;50.850;12.928;2022-12-18T05:24:16;99347.50;;;-12.64
20730;BMP280;10526;50.850;12.928;2022-12-18T05:28:38;99345.53;;;-12.68
20730;BMP280;10526;50.850;12.928;2022-12-18T05:33:00;99345.34;;;-12.73
20730;BMP280;10526;50.850;12.928;2022-12-18T05:37:22;99350.66;;;-12.81
20730;BMP280;10526;50.850;12.928;2022-12-18T05:41:44;99344.50;;;-12.87
20730;BMP280;10526;50.850;12.928;2022-12-18T05:46:14;99343.53;;;-12.93
20730;BMP280;10526;50.850;12.928;2022-12-18T05:50:38;99341.94;;;-13.00
20730;BMP280;10526;50.850;12.928;2022-12-18T05:55:00;99352.19;;;-13.00
20730;BMP280;10526;50.850;12.928;2022-12-18T05:59:22;99352.19;;;-13.00
20730;BMP280;10526;50.850;12.928;2022-12-18T06:03:44;99360.06;;;-13.02
20730;BMP280;10526;50.850;12.928;2022-12-18T06:08:08;99367.75;;;-13.02
20730;BMP280;10526;50.850;12.928;2022-12-18T06:12:30;99385.53;;;-13.00
20730;BMP280;10526;50.850;12.928;2022-12-18T06:16:52;99387.47;;;-13.02
20730;BMP280;10526;50.850;12.928;2022-12-18T06:21:14;99375.22;;;-13.07
20730;BMP280;10526;50.850;12.928;2022-12-18T06:25:38;99371.50;;;-13.04
20730;BMP280;10526;50.850;12.928;2022-12-18T06:30:01;99374.88;;;-13.04
20730;BMP280;10526;50.850;12.928;2022-12-18T06:34:23;99384.31;;;-13.04
20730;BMP280;10526;50.850;12.928;2022-12-18T06:38:45;99380.16;;;-13.06
20730;BMP280;10526;50.850;12.928;2022-12-18T06:43:07;99391.81;;;-13.03
20730;BMP280;10526;50.850;12.928;2022-12-18T06:47:29;99396.16;;;-13.03
20730;BMP280;10526;50.850;12.928;2022-12-18T06:51:51;99400.09;;;-13.01
20730;BMP280;10526;50.850;12.928;2022-12-18T06:56:13;99397.34;;;-12.99
20730;BMP280;10526;50.850;12.928;2022-12-18T07:00:35;99399.31;;;-13.01
20730;BMP280;10526;50.850;12.928;2022-12-18T07:04:58;99394.97;;;-13.01
20730;BMP280;10526;50.850;12.928;2022-12-18T07:09:20;99386.31;;;-12.93
20730;BMP280;10526;50.850;12.928;2022-12-18T07:13:42;99378.84;;;-12.88
20730;BMP280;10526;50.850;12.928;2022-12-18T07:18:04;99385.75;;;-12.82
20730;BMP280;10526;50.850;12.928;2022-12-18T07:22:26;99382.41;;;-12.76
20730;BMP280;10526;50.850;12.928;2022-12-18T07:26:48;99391.31;;;-12.65
20730;BMP280;10526;50.850;12.928;2022-12-18T07:31:18;99406.91;;;-12.53
20730;BMP280;10526;50.850;12.928;2022-12-18T07:35:42;99402.19;;;-12.43
20730;BMP280;10526;50.850;12.928;2022-12-18T07:40:05;99407.72;;;-12.33
20730;BMP280;10526;50.850;12.928;2022-12-18T07:44:27;99401.22;;;-12.15
20730;BMP280;10526;50.850;12.928;2022-12-18T07:48:49;99410.75;;;-10.11
20730;BMP280;10526;50.850;12.928;2022-12-18T07:53:11;99411.44;;;-6.61
20730;BMP280;10526;50.850;12.928;2022-12-18T07:57:33;99426.41;;;-4.02
20730;BMP280;10526;50.850;12.928;2022-12-18T08:02:11;99416.91;;;-2.38
20730;BMP280;10526;50.850;12.928;2022-12-18T08:06:33;99415.34;;;-0.48
20730;BMP280;10526;50.850;12.928;2022-12-18T08:10:56;99425.81;;;0.70
20730;BMP280;10526;50.850;12.928;2022-12-18T08:15:19;99428.34;;;2.27
20730;BMP280;10526;50.850;12.928;2022-12-18T08:19:42;99431.78;;;3.69
20730;BMP280;10526;50.850;12.928;2022-12-18T08:24:04;99440.00;;;5.01
20730;BMP280;10526;50.850;12.928;2022-12-18T08:28:26;99458.19;;;6.04
20730;BMP280;10526;50.850;12.928;2022-12-18T08:32:51;99452.91;;;7.19
20730;BMP280;10526;50.850;12.928;2022-12-18T08:37:14;99460.00;;;8.08
20730;BMP280;10526;50.850;12.928;2022-12-18T08:41:36;99456.03;;;8.77
20730;BMP280;10526;50.850;12.928;2022-12-18T08:45:58;99461.53;;;9.00
20730;BMP280;10526;50.850;12.928;2022-12-18T08:50:20;99466.53;;;9.21
20730;BMP280;10526;50.850;12.928;2022-12-18T08:54:42;99467.19;;;9.88
20730;BMP280;10526;50.850;12.928;2022-12-18T08:59:04;99464.34;;;10.92
20730;BMP280;10526;50.850;12.928;2022-12-18T09:03:26;99466.53;;;11.09
20730;BMP280;10526;50.850;12.928;2022-12-18T09:07:47;99465.59;;;11.58
20730;BMP280;10526;50.850;12.928;2022-12-18T09:12:09;99465.50;;;11.85
20730;BMP280;10526;50.850;12.928;2022-12-18T09:16:32;99470.69;;;11.70
20730;BMP280;10526;50.850;12.928;2022-12-18T09:20:56;99477.03;;;12.29
20730;BMP280;10526;50.850;12.928;2022-12-18T09:25:18;99474.56;;;12.58
20730;BMP280;10526;50.850;12.928;2022-12-18T09:29:40;99488.25;;;13.08
20730;BMP280;10526;50.850;12.928;2022-12-18T09:34:05;99478.59;;;12.89
20730;BMP280;10526;50.850;12.928;2022-12-18T09:38:27;99471.84;;;13.06
20730;BMP280;10526;50.850;12.928;2022-12-18T09:42:58;99466.09;;;12.49
20730;BMP280;10526;50.850;12.928;2022-12-18T09:47:29;99441.91;;;11.53
20730;BMP280;10526;50.850;12.928;2022-12-18T09:56:42;99446.72;;;13.25
20730;BMP280;10526;50.850;12.928;2022-12-18T10:01:24;99423.78;;;12.58
20730;BMP280;10526;50.850;12.928;2022-12-18T10:06:07;99420.09;;;12.77
20730;BMP280;10526;50.850;12.928;2022-12-18T10:10:53;99416.03;;;12.39
20730;BMP280;10526;50.850;12.928;2022-12-18T10:15:40;99405.56;;;12.19
20730;BMP280;10526;50.850;12.928;2022-12-18T10:29:52;99390.22;;;14.19
20730;BMP280;10526;50.850;12.928;2022-12-18T10:34:14;99373.72;;;14.34
20730;BMP280;10526;50.850;12.928;2022-12-18T10:38:37;99379.06;;;14.59
20730;BMP280;10526;50.850;12.928;2022-12-18T10:43:13;99381.41;;;14.43
20730;BMP280;10526;50.850;12.928;2022-12-18T10:47:37;99373.69;;;14.59
20730;BMP280;10526;50.850;12.928;2022-12-18T10:52:21;99380.97;;;14.55
20730;BMP280;10526;50.850;12.928;2022-12-18T10:56:44;99381.06;;;14.20
20730;BMP280;10526;50.850;12.928;2022-12-18T11:01:13;99370.28;;;13.41
20730;BMP280;10526;50.850;12.928;2022-12-18T11:05:36;99366.13;;;13.51
20730;BMP280;10526;50.850;12.928;2022-12-18T11:10:01;99363.66;;;13.00
20730;BMP280;10526;50.850;12.928;2022-12-18T11:14:34;99348.22;;;12.06
20730;BMP280;10526;50.850;12.928;2022-12-18T11:19:32;99349.84;;;11.33
20730;BMP280;10526;50.850;12.928;2022-12-18T11:23:54;99342.50;;;12.66
20730;BMP280;10526;50.850;12.928;2022-12-18T11:33:21;99341.78;;;12.73
20730;BMP280;10526;50.850;12.928;2022-12-18T11:37:53;99353.44;;;13.34
20730;BMP280;10526;50.850;12.928;2022-12-18T11:47:39;99363.75;;;6.04
20730;BMP280;10526;50.850;12.928;2022-12-18T11:52:15;99364.53;;;4.62
20730;BMP280;10526;50.850;12.928;2022-12-18T11:56:49;99361.56;;;4.08
20730;BMP280;10526;50.850;12.928;2022-12-18T12:02:09;99372.53;;;3.23
20730;BMP280;10526;50.850;12.928;2022-12-18T12:06:46;99370.06;;;2.34
20730;BMP280;10526;50.850;12.928;2022-12-18T12:12:20;99376.44;;;1.60
20730;BMP280;10526;50.850;12.928;2022-12-18T12:16:32;99368.28;;;0.93
20730;BMP280;10526;50.850;12.928;2022-12-18T12:21:04;99360.53;;;0.55
20730;BMP280;10526;50.850;12.928;2022-12-18T12:30:35;99366.50;;;0.09
20730;BMP280;10526;50.850;12.928;2022-12-18T12:39:51;99346.25;;;-0.23
20730;BMP280;10526;50.850;12.928;2022-12-18T12:44:27;99353.81;;;-0.21
20730;BMP280;10526;50.850;12.928;2022-12-18T12:49:03;99340.50;;;-0.25
20730;BMP280;10526;50.850;12.928;2022-12-18T12:53:34;99345.03;;;-0.31
20730;BMP280;10526;50.850;12.928;2022-12-18T12:58:28;99336.72;;;-0.38
20730;BMP280;10526;50.850;12.928;2022-12-18T13:08:03;99339.56;;;-0.58
20730;BMP280;10526;50.850;12.928;2022-12-18T13:12:28;99338.56;;;-0.62
20730;BMP280;10526;50.850;12.928;2022-12-18T13:21:42;99347.75;;;-0.41
20730;BMP280;10526;50.850;12.928;2022-12-18T13:39:43;99315.66;;;-0.70
20730;BMP280;10526;50.850;12.928;2022-12-18T13:44:33;99307.00;;;-0.90
20730;BMP280;10526;50.850;12.928;2022-12-18T13:53:48;99315.16;;;-1.20
20730;BMP280;10526;50.850;12.928;2022-12-18T13:58:12;99313.81;;;-1.47
20730;BMP280;10526;50.850;12.928;2022-12-18T14:02:34;99311.59;;;-1.64
20730;BMP280;10526;50.850;12.928;2022-12-18T14:07:19;99303.66;;;-1.83
20730;BMP280;10526;50.850;12.928;2022-12-18T14:11:49;99303.25;;;-2.05
20730;BMP280;10526;50.850;12.928;2022-12-18T14:16:15;99289.53;;;-2.21
20730;BMP280;10526;50.850;12.928;2022-12-18T14:20:44;99291.38;;;-2.32
20730;BMP280;10526;50.850;12.928;2022-12-18T14:29:35;99282.91;;;-2.53
20730;BMP280;10526;50.850;12.928;2022-12-18T14:33:56;99284.75;;;-2.58
20730;BMP280;10526;50.850;12.928;2022-12-18T14:38:36;99282.94;;;-2.63
20730;BMP280;10526;50.850;12.928;2022-12-18T14:42:58;99274.88;;;-2.61
20730;BMP280;10526;50.850;12.928;2022-12-18T14:47:20;99284.50;;;-2.62
20730;BMP280;10526;50.850;12.928;2022-12-18T14:51:57;99280.59;;;-2.70
20730;BMP280;10526;50.850;12.928;2022-12-18T14:56:23;99280.63;;;-2.75
20730;BMP280;10526;50.850;12.928;2022-12-18T15:00:46;99285.88;;;-2.85
20730;BMP280;10526;50.850;12.928;2022-12-18T15:09:38;99263.53;;;-3.06
20730;BMP280;10526;50.850;12.928;2022-12-18T15:18:51;99269.03;;;-3.23
20730;BMP280;10526;50.850;12.928;2022-12-18T15:28:22;99250.25;;;-3.25
20730;BMP280;10526;50.850;12.928;2022-12-18T15:32:45;99262.03;;;-3.23
20730;BMP280;10526;50.850;12.928;2022-12-18T15:37:08;99262.00;;;-3.33
20730;BMP280;10526;50.850;12.928;2022-12-18T15:41:33;99281.28;;;-3.29
20730;BMP280;10526;50.850;12.928;2022-12-18T15:45:57;99293.53;;;-3.24
20730;BMP280;10526;50.850;12.928;2022-12-18T15:50:19;99287.00;;;-3.22
20730;BMP280;10526;50.850;12.928;2022-12-18T15:54:41;99280.25;;;-3.23
20730;BMP280;10526;50.850;12.928;2022-12-18T15:59:23;99281.78;;;-3.27
20730;BMP280;10526;50.850;12.928;2022-12-18T16:03:44;99289.09;;;-3.34
20730;BMP280;10526;50.850;12.928;2022-12-18T16:08:07;99270.09;;;-3.40
20730;BMP280;10526;50.850;12.928;2022-12-18T16:12:29;99277.13;;;-3.45
20730;BMP280;10526;50.850;12.928;2022-12-18T16:17:05;99279.22;;;-3.47
20730;BMP280;10526;50.850;12.928;2022-12-18T16:21:27;99278.44;;;-3.48
20730;BMP280;10526;50.850;12.928;2022-12-18T16:25:54;99272.97;;;-3.56
20730;BMP280;10526;50.850;12.928;2022-12-18T16:30:20;99273.72;;;-3.56
20730;BMP280;10526;50.850;12.928;2022-12-18T16:34:43;99268.78;;;-3.63
20730;BMP280;10526;50.850;12.928;2022-12-18T16:39:05;99257.84;;;-3.59
20730;BMP280;10526;50.850;12.928;2022-12-18T16:43:28;99261.50;;;-3.61
20730;BMP280;10526;50.850;12.928;2022-12-18T16:47:50;99246.91;;;-3.62
20730;BMP280;10526;50.850;12.928;2022-12-18T16:52:12;99260.72;;;-3.61
20730;BMP280;10526;50.850;12.928;2022-12-18T16:56:34;99254.22;;;-3.64
20730;BMP280;10526;50.850;12.928;2022-12-18T17:00:56;99253.19;;;-3.68
20730;BMP280;10526;50.850;12.928;2022-12-18T17:05:18;99244.34;;;-3.72
20730;BMP280;10526;50.850;12.928;2022-12-18T17:09:40;99246.94;;;-3.72
20730;BMP280;10526;50.850;12.928;2022-12-18T17:14:17;99254.72;;;-3.67
20730;BMP280;10526;50.850;12.928;2022-12-18T17:18:40;99234.16;;;-3.63
20730;BMP280;10526;50.850;12.928;2022-12-18T17:23:02;99240.16;;;-3.57
20730;BMP280;10526;50.850;12.928;2022-12-18T17:27:24;99222.97;;;-3.53
20730;BMP280;10526;50.850;12.928;2022-12-18T17:31:46;99216.47;;;-3.46
20730;BMP280;10526;50.850;12.928;2022-12-18T17:36:09;99214.34;;;-3.39
20730;BMP280;10526;50.850;12.928;2022-12-18T17:40:34;99211.75;;;-3.33
20730;BMP280;10526;50.850;12.928;2022-12-18T17:44:56;99196.63;;;-3.26
20730;BMP280;10526;50.850;12.928;2022-12-18T17:49:18;99190.88;;;-3.23
20730;BMP280;10526;50.850;12.928;2022-12-18T17:53:41;99184.38;;;-3.21
20730;BMP280;10526;50.850;12.928;2022-12-18T17:58:04;99185.66;;;-3.18
20730;BMP280;10526;50.850;12.928;2022-12-18T18:02:26;99182.53;;;-3.20
20730;BMP280;10526;50.850;12.928;2022-12-18T18:06:49;99179.16;;;-3.21
20730;BMP280;10526;50.850;12.928;2022-12-18T18:11:15;99178.66;;;-3.23
20730;BMP280;10526;50.850;12.928;2022-12-18T18:15:56;99172.13;;;-3.20
20730;BMP280;10526;50.850;12.928;2022-12-18T18:20:19;99155.16;;;-3.13
20730;BMP280;10526;50.850;12.928;2022-12-18T18:24:43;99151.41;;;-2.96
20730;BMP280;10526;50.850;12.928;2022-12-18T18:29:17;99151.28;;;-2.71
20730;BMP280;10526;50.850;12.928;2022-12-18T18:33:40;99152.28;;;-2.56
20730;BMP280;10526;50.850;12.928;2022-12-18T18:38:03;99144.28;;;-2.36
20730;BMP280;10526;50.850;12.928;2022-12-18T18:42:25;99143.94;;;-2.19
20730;BMP280;10526;50.850;12.928;2022-12-18T18:46:47;99145.66;;;-2.09
20730;BMP280;10526;50.850;12.928;2022-12-18T18:51:15;99155.41;;;-1.91
20730;BMP280;10526;50.850;12.928;2022-12-18T18:55:42;99148.06;;;-1.89
20730;BMP280;10526;50.850;12.928;2022-12-18T19:00:04;99157.72;;;-1.84
20730;BMP280;10526;50.850;12.928;2022-12-18T19:04:28;99139.28;;;-1.69
20730;BMP280;10526;50.850;12.928;2022-12-18T19:08:54;99128.16;;;-1.56
20730;BMP280;10526;50.850;12.928;2022-12-18T19:13:21;99121.53;;;-1.48
20730;BMP280;10526;50.850;12.928;2022-12-18T19:17:45;99125.66;;;-1.42
20730;BMP280;10526;50.850;12.928;2022-12-18T19:22:08;99121.13;;;-1.36
20730;BMP280;10526;50.850;12.928;2022-12-18T19:26:31;99101.00;;;-1.31
20730;BMP280;10526;50.850;12.928;2022-12-18T19:30:57;99111.22;;;-1.15
20730;BMP280;10526;50.850;12.928;2022-12-18T19:35:20;99091.25;;;-1.06
20730;BMP280;10526;50.850;12.928;2022-12-18T19:39:42;99089.59;;;-0.83
20730;BMP280;10526;50.850;12.928;2022-12-18T19:44:05;99070.34;;;-0.74
20730;BMP280;10526;50.850;12.928;2022-12-18T19:48:29;99062.81;;;-0.75
20730;BMP280;10526;50.850;12.928;2022-12-18T19:52:51;99072.34;;;-0.65
20730;BMP280;10526;50.850;12.928;2022-12-18T19:57:12;99068.00;;;-0.56
20730;BMP280;10526;50.850;12.928;2022-12-18T20:01:35;99067.50;;;-0.58
20730;BMP280;10526;50.850;12.928;2022-12-18T20:10:36;99066.88;;;-0.36
20730;BMP280;10526;50.850;12.928;2022-12-18T20:14:58;99073.59;;;-0.30
20730;BMP280;10526;50.850;12.928;2022-12-18T20:19:20;99056.59;;;-0.33
20730;BMP280;10526;50.850;12.928;2022-12-18T20:23:44;99058.94;;;-0.31
20730;BMP280;10526;50.850;12.928;2022-12-18T20:28:06;99054.50;;;-0.31
20730;BMP280;10526;50.850;12.928;2022-12-18T20:32:28;99067.31;;;-0.29
20730;BMP280;10526;50.850;12.928;2022-12-18T20:36:57;99076.00;;;-0.34
20730;BMP280;10526;50.850;12.928;2022-12-18T20:41:21;99062.19;;;-0.39
20730;BMP280;10526;50.850;12.928;2022-12-18T20:45:43;99059.38;;;-0.43
20730;BMP280;10526;50.850;12.928;2022-12-18T20:50:07;99039.94;;;-0.37
20730;BMP280;10526;50.850;12.928;2022-12-18T20:54:29;99042.88;;;-0.25
20730;BMP280;10526;50.850;12.928;2022-12-18T20:58:56;99049.00;;;-0.15
20730;BMP280;10526;50.850;12.928;2022-12-18T21:03:20;99053.38;;;-0.11
20730;BMP280;10526;50.850;12.928;2022-12-18T21:07:42;99042.22;;;-0.03
20730;BMP280;10526;50.850;12.928;2022-12-18T21:12:14;99046.09;;;0.00
20730;BMP280;10526;50.850;12.928;2022-12-18T21:17:02;99058.59;;;0.03
20730;BMP280;10526;50.850;12.928;2022-12-18T21:21:24;99060.16;;;0.04
20730;BMP280;10526;50.850;12.928;2022-12-18T21:25:47;99049.09;;;0.07
20730;BMP280;10526;50.850;12.928;2022-12-18T21:30:16;99068.19;;;0.21
20730;BMP280;10526;50.850;12.928;2022-12-18T21:34:39;99069.28;;;0.20
20730;BMP280;10526;50.850;12.928;2022-12-18T21:39:08;99072.97;;;0.19
20730;BMP280;10526;50.850;12.928;2022-12-18T21:43:30;99041.03;;;0.17
20730;BMP280;10526;50.850;12.928;2022-12-18T21:48:20;99028.22;;;0.30
20730;BMP280;10526;50.850;12.928;2022-12-18T21:52:43;99023.31;;;0.37
20730;BMP280;10526;50.850;12.928;2022-12-18T21:57:06;99010.22;;;0.37
20730;BMP280;10526;50.850;12.928;2022-12-18T22:01:28;99013.22;;;0.44
20730;BMP280;10526;50.850;12.928;2022-12-18T22:05:58;99007.84;;;0.49
20730;BMP280;10526;50.850;12.928;2022-12-18T22:10:30;99006.81;;;0.50
20730;BMP280;10526;50.850;12.928;2022-12-18T22:14:52;99006.69;;;0.55
20730;BMP280;10526;50.850;12.928;2022-12-18T22:19:15;98995.44;;;0.55
20730;BMP280;10526;50.850;12.928;2022-12-18T22:23:37;98991.44;;;0.57
20730;BMP280;10526;50.850;12.928;2022-12-18T22:27:59;98998.94;;;0.50
20730;BMP280;10526;50.850;12.928;2022-12-18T22:32:40;98982.84;;;0.43
20730;BMP280;10526;50.850;12.928;2022-12-18T22:37:02;98966.34;;;0.42
20730;BMP280;10526;50.850;12.928;2022-12-18T22:41:23;98972.38;;;0.43
20730;BMP280;10526;50.850;12.928;2022-12-18T22:45:45;98960.63;;;0.40
20730;BMP280;10526;50.850;12.928;2022-12-18T22:50:12;98968.44;;;0.32
20730;BMP280;10526;50.850;12.928;2022-12-18T22:54:34;98945.31;;;0.34
20730;BMP280;10526;50.850;12.928;2022-12-18T22:58:57;98944.38;;;0.30
20730;BMP280;10526;50.850;12.928;2022-12-18T23:03:18;98933.44;;;0.28
20730;BMP280;10526;50.850;12.928;2022-12-18T23:07:41;98928.59;;;0.21
20730;BMP280;10526;50.850;12.928;2022-12-18T23:12:03;98956.13;;;0.18
20730;BMP280;10526;50.850;12.928;2022-12-18T23:16:25;98946.56;;;0.14
20730;BMP280;10526;50.850;12.928;2022-12-18T23:20:47;98925.78;;;0.17
20730;BMP280;10526;50.850;12.928;2022-12-18T23:25:11;98917.44;;;0.15
20730;BMP280;10526;50.850;12.928;2022-12-18T23:29:33;98897.81;;;0.04
20730;BMP280;10526;50.850;12.928;2022-12-18T23:33:57;98909.06;;;-0.09
20730;BMP280;10526;50.850;12.928;2022-12-18T23:38:21;98908.22;;;-0.18
20730;BMP280;10526;50.850;12.928;2022-12-18T23:42:43;98903.00;;;-0.18
20730;BMP280;10526;50.850;12.928;2022-12-18T23:47:05;98893.09;;;-0.21
20730;BMP280;10526;50.850;12.928;2022-12-18T23:51:28;98907.66;;;-0.29
20730;BMP280;10526;50.850;12.928;2022-12-18T23:55:51;98894.88;;;-0.31
